sensor_id;sensor_type;location;lat;lon;timestamp;temperature;humidity
20998;DHT22;10657;51.276;6.390;2023-07-22T00:01:50;15.50;99.90
20998;DHT22;10657;51.276;6.390;2023-07-22T00:04:16;15.60;99.90
20998;DHT22;10657;51.276;6.390;2023-07-22T00:06:43;15.50;99.90
20998;DHT22;10657;51.276;6.390;2023-07-22T00:09:10;15.50;99.90
20998;DHT22;10657;51.276;6.390;2023-07-22T00:11:36;15.50;99.90
20998;DHT22;10657;51.276;6.390;2023-07-22T00:14:03;15.60;99.90
20998;DHT22;10657;51.276;6.390;2023-07-22T00:16:32;15.60;99.90
20998;DHT22;10657;51.276;6.390;2023-07-22T00:18:59;15.60;99.90
20998;DHT22;10657;51.276;6.390;2023-07-22T00:21:26;15.60;99.90
20998;DHT22;10657;51.276;6.390;2023-07-22T00:23:54;15.60;99.90
20998;DHT22;10657;51.276;6.390;2023-07-22T00:26:20;15.70;99.90
20998;DHT22;10657;51.276;6.390;2023-07-22T00:28:47;15.50;99.90
20998;DHT22;10657;51.276;6.390;2023-07-22T00:31:14;15.40;99.90
20998;DHT22;10657;51.276;6.390;2023-07-22T00:33:41;15.50;99.90
20998;DHT22;10657;51.276;6.390;2023-07-22T00:36:07;15.50;99.90
20998;DHT22;10657;51.276;6.390;2023-07-22T00:38:34;15.60;99.90
20998;DHT22;10657;51.276;6.390;2023-07-22T00:41:01;15.60;99.90
20998;DHT22;10657;51.276;6.390;2023-07-22T00:43:31;15.60;99.90
20998;DHT22;10657;51.276;6.390;2023-07-22T00:45:58;15.50;99.90
20998;DHT22;10657;51.276;6.390;2023-07-22T00:48:25;15.60;99.90
20998;DHT22;10657;51.276;6.390;2023-07-22T00:50:53;15.60;99.90
20998;DHT22;10657;51.276;6.390;2023-07-22T00:53:20;15.60;99.90
20998;DHT22;10657;51.276;6.390;2023-07-22T00:55:47;15.40;99.90
20998;DHT22;10657;51.276;6.390;2023-07-22T00:58:14;15.40;99.90
20998;DHT22;10657;51.276;6.390;2023-07-22T01:00:41;15.30;99.90
20998;DHT22;10657;51.276;6.390;2023-07-22T01:03:08;15.40;99.90
20998;DHT22;10657;51.276;6.390;2023-07-22T01:05:35;15.40;99.90
20998;DHT22;10657;51.276;6.390;2023-07-22T01:08:03;15.40;99.90
20998;DHT22;10657;51.276;6.390;2023-07-22T01:10:30;15.30;99.90
20998;DHT22;10657;51.276;6.390;2023-07-22T01:12:57;15.20;99.90
20998;DHT22;10657;51.276;6.390;2023-07-22T01:15:24;15.30;99.90
20998;DHT22;10657;51.276;6.390;2023-07-22T01:17:51;15.30;99.90
20998;DHT22;10657;51.276;6.390;2023-07-22T01:20:19;15.30;99.90
20998;DHT22;10657;51.276;6.390;2023-07-22T01:22:53;15.30;99.90
20998;DHT22;10657;51.276;6.390;2023-07-22T01:25:20;15.30;99.90
20998;DHT22;10657;51.276;6.390;2023-07-22T01:27:51;15.30;99.90
20998;DHT22;10657;51.276;6.390;2023-07-22T01:30:18;15.20;99.90
20998;DHT22;10657;51.276;6.390;2023-07-22T01:32:46;15.20;99.90
20998;DHT22;10657;51.276;6.390;2023-07-22T01:35:13;15.10;99.90
20998;DHT22;10657;51.276;6.390;2023-07-22T01:37:40;15.10;99.90
20998;DHT22;10657;51.276;6.390;2023-07-22T01:40:07;15.20;99.90
20998;DHT22;10657;51.276;6.390;2023-07-22T01:42:41;15.10;99.90
20998;DHT22;10657;51.276;6.390;2023-07-22T01:45:08;15.00;99.90
20998;DHT22;10657;51.276;6.390;2023-07-22T01:47:36;15.00;99.90
20998;DHT22;10657;51.276;6.390;2023-07-22T01:50:04;15.10;99.90
20998;DHT22;10657;51.276;6.390;2023-07-22T01:52:32;15.00;99.90
20998;DHT22;10657;51.276;6.390;2023-07-22T01:54:59;14.90;99.90
20998;DHT22;10657;51.276;6.390;2023-07-22T01:57:26;14.80;99.90
20998;DHT22;10657;51.276;6.390;2023-07-22T01:59:52;14.70;99.90
20998;DHT22;10657;51.276;6.390;2023-07-22T02:02:19;14.90;99.90
20998;DHT22;10657;51.276;6.390;2023-07-22T02:04:46;14.90;99.90
20998;DHT22;10657;51.276;6.390;2023-07-22T02:07:13;14.90;99.90
20998;DHT22;10657;51.276;6.390;2023-07-22T02:09:40;15.00;99.90
20998;DHT22;10657;51.276;6.390;2023-07-22T02:12:07;14.70;99.90
20998;DHT22;10657;51.276;6.390;2023-07-22T02:14:34;14.70;99.90
20998;DHT22;10657;51.276;6.390;2023-07-22T02:17:01;14.80;99.90
20998;DHT22;10657;51.276;6.390;2023-07-22T02:19:27;14.90;99.90
20998;DHT22;10657;51.276;6.390;2023-07-22T02:21:54;14.90;99.90
20998;DHT22;10657;51.276;6.390;2023-07-22T02:24:21;14.80;99.90
20998;DHT22;10657;51.276;6.390;2023-07-22T02:26:47;14.90;99.90
20998;DHT22;10657;51.276;6.390;2023-07-22T02:29:14;14.90;99.90
20998;DHT22;10657;51.276;6.390;2023-07-22T02:31:41;14.80;99.90
20998;DHT22;10657;51.276;6.390;2023-07-22T02:34:07;14.90;99.90
20998;DHT22;10657;51.276;6.390;2023-07-22T02:36:34;14.70;99.90
20998;DHT22;10657;51.276;6.390;2023-07-22T02:39:01;14.70;99.90
20998;DHT22;10657;51.276;6.390;2023-07-22T02:41:27;14.70;99.90
20998;DHT22;10657;51.276;6.390;2023-07-22T02:43:54;14.70;99.90
20998;DHT22;10657;51.276;6.390;2023-07-22T02:46:21;14.70;99.90
20998;DHT22;10657;51.276;6.390;2023-07-22T02:48:48;14.70;99.90
20998;DHT22;10657;51.276;6.390;2023-07-22T02:51:15;14.60;99.90
20998;DHT22;10657;51.276;6.390;2023-07-22T02:53:42;14.60;99.90
20998;DHT22;10657;51.276;6.390;2023-07-22T02:56:10;14.70;99.90
20998;DHT22;10657;51.276;6.390;2023-07-22T02:58:37;14.70;99.90
20998;DHT22;10657;51.276;6.390;2023-07-22T03:01:04;14.70;99.90
20998;DHT22;10657;51.276;6.390;2023-07-22T03:03:32;14.60;99.90
20998;DHT22;10657;51.276;6.390;2023-07-22T03:06:01;14.60;99.90
20998;DHT22;10657;51.276;6.390;2023-07-22T03:08:30;14.50;99.90
20998;DHT22;10657;51.276;6.390;2023-07-22T03:10:56;14.60;99.90
20998;DHT22;10657;51.276;6.390;2023-07-22T03:13:23;14.60;99.90
20998;DHT22;10657;51.276;6.390;2023-07-22T03:15:50;14.60;99.90
20998;DHT22;10657;51.276;6.390;2023-07-22T03:18:16;14.70;99.90
20998;DHT22;10657;51.276;6.390;2023-07-22T03:20:43;14.70;99.90
20998;DHT22;10657;51.276;6.390;2023-07-22T03:23:10;14.70;99.90
20998;DHT22;10657;51.276;6.390;2023-07-22T03:25:36;14.70;99.90
20998;DHT22;10657;51.276;6.390;2023-07-22T03:28:05;14.80;99.90
20998;DHT22;10657;51.276;6.390;2023-07-22T03:30:33;14.70;99.90
20998;DHT22;10657;51.276;6.390;2023-07-22T03:33:00;14.80;99.90
20998;DHT22;10657;51.276;6.390;2023-07-22T03:35:27;14.80;99.90
20998;DHT22;10657;51.276;6.390;2023-07-22T03:37:55;14.80;99.90
20998;DHT22;10657;51.276;6.390;2023-07-22T03:40:22;14.80;99.90
20998;DHT22;10657;51.276;6.390;2023-07-22T03:42:54;14.80;99.90
20998;DHT22;10657;51.276;6.390;2023-07-22T03:45:21;14.70;99.90
20998;DHT22;10657;51.276;6.390;2023-07-22T03:47:53;14.80;99.90
20998;DHT22;10657;51.276;6.390;2023-07-22T03:50:20;14.70;99.90
20998;DHT22;10657;51.276;6.390;2023-07-22T03:52:47;14.70;99.90
20998;DHT22;10657;51.276;6.390;2023-07-22T03:55:14;14.80;99.90
20998;DHT22;10657;51.276;6.390;2023-07-22T03:57:41;14.70;99.90
20998;DHT22;10657;51.276;6.390;2023-07-22T04:00:08;14.80;99.90
20998;DHT22;10657;51.276;6.390;2023-07-22T04:02:36;14.70;99.90
20998;DHT22;10657;51.276;6.390;2023-07-22T04:05:03;14.70;99.90
20998;DHT22;10657;51.276;6.390;2023-07-22T04:07:30;14.70;99.90
20998;DHT22;10657;51.276;6.390;2023-07-22T04:09:57;14.70;99.90
20998;DHT22;10657;51.276;6.390;2023-07-22T04:12:24;14.60;99.90
20998;DHT22;10657;51.276;6.390;2023-07-22T04:14:50;14.60;99.90
20998;DHT22;10657;51.276;6.390;2023-07-22T04:17:17;14.60;99.90
20998;DHT22;10657;51.276;6.390;2023-07-22T04:19:44;14.60;99.90
20998;DHT22;10657;51.276;6.390;2023-07-22T04:22:10;14.60;99.90
20998;DHT22;10657;51.276;6.390;2023-07-22T04:24:38;14.60;99.90
20998;DHT22;10657;51.276;6.390;2023-07-22T04:27:05;14.60;99.90
20998;DHT22;10657;51.276;6.390;2023-07-22T04:29:32;14.60;99.90
20998;DHT22;10657;51.276;6.390;2023-07-22T04:31:59;14.70;99.90
20998;DHT22;10657;51.276;6.390;2023-07-22T04:34:32;14.70;99.90
20998;DHT22;10657;51.276;6.390;2023-07-22T04:36:59;14.60;99.90
20998;DHT22;10657;51.276;6.390;2023-07-22T04:39:26;14.60;99.90
20998;DHT22;10657;51.276;6.390;2023-07-22T04:41:53;14.60;99.90
20998;DHT22;10657;51.276;6.390;2023-07-22T04:44:20;14.70;99.90
20998;DHT22;10657;51.276;6.390;2023-07-22T04:46:46;14.70;99.90
20998;DHT22;10657;51.276;6.390;2023-07-22T04:49:13;14.60;99.90
20998;DHT22;10657;51.276;6.390;2023-07-22T04:51:47;14.70;99.90
20998;DHT22;10657;51.276;6.390;2023-07-22T04:54:14;14.60;99.90
20998;DHT22;10657;51.276;6.390;2023-07-22T04:56:42;14.70;99.90
20998;DHT22;10657;51.276;6.390;2023-07-22T04:59:09;14.50;99.90
20998;DHT22;10657;51.276;6.390;2023-07-22T05:01:36;14.60;99.90
20998;DHT22;10657;51.276;6.390;2023-07-22T05:04:03;14.60;99.90
20998;DHT22;10657;51.276;6.390;2023-07-22T05:06:31;14.60;99.90
20998;DHT22;10657;51.276;6.390;2023-07-22T05:08:58;14.60;99.90
20998;DHT22;10657;51.276;6.390;2023-07-22T05:11:25;14.60;99.90
20998;DHT22;10657;51.276;6.390;2023-07-22T05:13:52;14.60;99.90
20998;DHT22;10657;51.276;6.390;2023-07-22T05:16:18;14.70;99.90
20998;DHT22;10657;51.276;6.390;2023-07-22T05:18:47;14.60;99.90
20998;DHT22;10657;51.276;6.390;2023-07-22T05:21:14;14.70;99.90
20998;DHT22;10657;51.276;6.390;2023-07-22T05:23:41;14.80;99.90
20998;DHT22;10657;51.276;6.390;2023-07-22T05:26:07;14.70;99.90
20998;DHT22;10657;51.276;6.390;2023-07-22T05:28:34;14.80;99.90
20998;DHT22;10657;51.276;6.390;2023-07-22T05:31:01;14.80;99.90
20998;DHT22;10657;51.276;6.390;2023-07-22T05:33:28;14.90;99.90
20998;DHT22;10657;51.276;6.390;2023-07-22T05:35:54;14.90;99.90
20998;DHT22;10657;51.276;6.390;2023-07-22T05:38:21;15.00;99.90
20998;DHT22;10657;51.276;6.390;2023-07-22T05:40:48;15.00;99.90
20998;DHT22;10657;51.276;6.390;2023-07-22T05:43:15;15.10;99.90
20998;DHT22;10657;51.276;6.390;2023-07-22T05:45:41;15.10;99.90
20998;DHT22;10657;51.276;6.390;2023-07-22T05:48:08;15.20;99.90
20998;DHT22;10657;51.276;6.390;2023-07-22T05:50:35;15.20;99.90
20998;DHT22;10657;51.276;6.390;2023-07-22T05:53:02;15.30;99.90
20998;DHT22;10657;51.276;6.390;2023-07-22T05:55:29;15.30;99.90
20998;DHT22;10657;51.276;6.390;2023-07-22T05:57:56;15.30;99.90
20998;DHT22;10657;51.276;6.390;2023-07-22T06:00:23;15.30;99.90
20998;DHT22;10657;51.276;6.390;2023-07-22T06:02:49;15.40;99.90
20998;DHT22;10657;51.276;6.390;2023-07-22T06:05:16;15.30;99.90
20998;DHT22;10657;51.276;6.390;2023-07-22T06:07:43;15.30;99.90
20998;DHT22;10657;51.276;6.390;2023-07-22T06:10:10;15.40;99.90
20998;DHT22;10657;51.276;6.390;2023-07-22T06:12:36;15.50;99.90
20998;DHT22;10657;51.276;6.390;2023-07-22T06:15:03;15.40;99.90
20998;DHT22;10657;51.276;6.390;2023-07-22T06:17:31;15.50;99.90
20998;DHT22;10657;51.276;6.390;2023-07-22T06:19:57;15.70;99.90
20998;DHT22;10657;51.276;6.390;2023-07-22T06:22:24;15.80;99.90
20998;DHT22;10657;51.276;6.390;2023-07-22T06:24:51;15.90;99.90
20998;DHT22;10657;51.276;6.390;2023-07-22T06:27:18;15.90;99.90
20998;DHT22;10657;51.276;6.390;2023-07-22T06:29:44;15.90;99.90
20998;DHT22;10657;51.276;6.390;2023-07-22T06:32:11;15.90;99.90
20998;DHT22;10657;51.276;6.390;2023-07-22T06:34:38;16.00;99.90
20998;DHT22;10657;51.276;6.390;2023-07-22T06:37:04;16.10;99.90
20998;DHT22;10657;51.276;6.390;2023-07-22T06:39:31;16.10;99.90
20998;DHT22;10657;51.276;6.390;2023-07-22T06:41:58;16.10;99.90
20998;DHT22;10657;51.276;6.390;2023-07-22T06:44:25;16.10;99.90
20998;DHT22;10657;51.276;6.390;2023-07-22T06:46:51;16.10;99.90
20998;DHT22;10657;51.276;6.390;2023-07-22T06:49:18;16.20;99.90
20998;DHT22;10657;51.276;6.390;2023-07-22T06:51:45;16.30;99.90
20998;DHT22;10657;51.276;6.390;2023-07-22T06:54:11;16.30;99.90
20998;DHT22;10657;51.276;6.390;2023-07-22T06:56:38;16.20;99.90
20998;DHT22;10657;51.276;6.390;2023-07-22T06:59:04;16.20;99.90
20998;DHT22;10657;51.276;6.390;2023-07-22T07:01:31;16.20;99.90
20998;DHT22;10657;51.276;6.390;2023-07-22T07:03:58;16.30;99.90
20998;DHT22;10657;51.276;6.390;2023-07-22T07:06:25;16.40;99.90
20998;DHT22;10657;51.276;6.390;2023-07-22T07:08:51;16.40;99.90
20998;DHT22;10657;51.276;6.390;2023-07-22T07:11:18;16.50;99.90
20998;DHT22;10657;51.276;6.390;2023-07-22T07:13:45;16.50;99.90
20998;DHT22;10657;51.276;6.390;2023-07-22T07:16:26;16.60;99.90
20998;DHT22;10657;51.276;6.390;2023-07-22T07:18:54;16.60;99.90
20998;DHT22;10657;51.276;6.390;2023-07-22T07:21:22;16.70;99.90
20998;DHT22;10657;51.276;6.390;2023-07-22T07:23:49;16.70;99.90
20998;DHT22;10657;51.276;6.390;2023-07-22T07:26:16;16.80;99.90
20998;DHT22;10657;51.276;6.390;2023-07-22T07:28:44;16.80;99.90
20998;DHT22;10657;51.276;6.390;2023-07-22T07:31:10;16.80;99.90
20998;DHT22;10657;51.276;6.390;2023-07-22T07:33:37;16.80;99.90
20998;DHT22;10657;51.276;6.390;2023-07-22T07:36:04;16.80;99.90
20998;DHT22;10657;51.276;6.390;2023-07-22T07:38:31;17.00;99.90
20998;DHT22;10657;51.276;6.390;2023-07-22T07:41:07;17.00;99.90
20998;DHT22;10657;51.276;6.390;2023-07-22T07:43:42;17.00;99.90
20998;DHT22;10657;51.276;6.390;2023-07-22T07:48:46;17.10;99.90
20998;DHT22;10657;51.276;6.390;2023-07-22T07:51:17;17.10;99.90
20998;DHT22;10657;51.276;6.390;2023-07-22T07:53:45;17.10;99.90
20998;DHT22;10657;51.276;6.390;2023-07-22T07:56:14;17.20;99.90
20998;DHT22;10657;51.276;6.390;2023-07-22T07:58:40;17.20;99.90
20998;DHT22;10657;51.276;6.390;2023-07-22T08:01:07;17.20;99.90
20998;DHT22;10657;51.276;6.390;2023-07-22T08:03:35;17.30;99.90
20998;DHT22;10657;51.276;6.390;2023-07-22T08:06:02;17.30;99.90
20998;DHT22;10657;51.276;6.390;2023-07-22T08:08:30;17.40;99.90
20998;DHT22;10657;51.276;6.390;2023-07-22T08:11:05;17.50;99.90
20998;DHT22;10657;51.276;6.390;2023-07-22T08:13:32;17.60;99.90
20998;DHT22;10657;51.276;6.390;2023-07-22T08:16:04;17.70;99.90
20998;DHT22;10657;51.276;6.390;2023-07-22T08:18:32;17.70;99.90
20998;DHT22;10657;51.276;6.390;2023-07-22T08:21:00;17.80;99.90
20998;DHT22;10657;51.276;6.390;2023-07-22T08:23:27;17.90;99.90
20998;DHT22;10657;51.276;6.390;2023-07-22T08:25:54;17.90;99.90
20998;DHT22;10657;51.276;6.390;2023-07-22T08:28:20;17.90;99.90
20998;DHT22;10657;51.276;6.390;2023-07-22T08:30:54;18.00;99.90
20998;DHT22;10657;51.276;6.390;2023-07-22T08:33:22;18.10;99.90
20998;DHT22;10657;51.276;6.390;2023-07-22T08:36:06;18.20;99.90
20998;DHT22;10657;51.276;6.390;2023-07-22T08:38:33;18.10;99.90
20998;DHT22;10657;51.276;6.390;2023-07-22T08:41:00;18.00;99.90
20998;DHT22;10657;51.276;6.390;2023-07-22T08:43:28;18.10;99.90
20998;DHT22;10657;51.276;6.390;2023-07-22T08:45:57;18.10;99.90
20998;DHT22;10657;51.276;6.390;2023-07-22T08:48:26;18.10;99.90
20998;DHT22;10657;51.276;6.390;2023-07-22T08:51:02;18.10;99.90
20998;DHT22;10657;51.276;6.390;2023-07-22T08:53:30;18.30;99.90
20998;DHT22;10657;51.276;6.390;2023-07-22T08:55:57;18.40;99.90
20998;DHT22;10657;51.276;6.390;2023-07-22T08:58:24;18.50;99.90
20998;DHT22;10657;51.276;6.390;2023-07-22T09:00:51;18.60;99.90
20998;DHT22;10657;51.276;6.390;2023-07-22T09:03:19;18.60;99.90
20998;DHT22;10657;51.276;6.390;2023-07-22T09:05:46;18.80;99.90
20998;DHT22;10657;51.276;6.390;2023-07-22T09:08:14;19.00;99.90
20998;DHT22;10657;51.276;6.390;2023-07-22T09:10:41;19.10;99.90
20998;DHT22;10657;51.276;6.390;2023-07-22T09:13:09;19.00;99.90
20998;DHT22;10657;51.276;6.390;2023-07-22T09:15:36;18.90;99.90
20998;DHT22;10657;51.276;6.390;2023-07-22T09:18:03;18.90;99.90
20998;DHT22;10657;51.276;6.390;2023-07-22T09:20:31;19.00;99.90
20998;DHT22;10657;51.276;6.390;2023-07-22T09:22:59;18.90;99.90
20998;DHT22;10657;51.276;6.390;2023-07-22T09:25:41;18.90;99.90
20998;DHT22;10657;51.276;6.390;2023-07-22T09:28:08;18.80;99.90
20998;DHT22;10657;51.276;6.390;2023-07-22T09:30:37;18.80;99.90
20998;DHT22;10657;51.276;6.390;2023-07-22T09:33:06;18.70;99.90
20998;DHT22;10657;51.276;6.390;2023-07-22T09:35:48;18.80;99.90
20998;DHT22;10657;51.276;6.390;2023-07-22T09:38:23;18.70;99.90
20998;DHT22;10657;51.276;6.390;2023-07-22T09:40:51;18.80;99.90
20998;DHT22;10657;51.276;6.390;2023-07-22T09:43:17;18.90;99.90
20998;DHT22;10657;51.276;6.390;2023-07-22T09:45:47;18.80;99.90
20998;DHT22;10657;51.276;6.390;2023-07-22T09:48:14;18.80;99.90
20998;DHT22;10657;51.276;6.390;2023-07-22T09:50:42;18.90;99.90
20998;DHT22;10657;51.276;6.390;2023-07-22T09:53:10;19.00;99.90
20998;DHT22;10657;51.276;6.390;2023-07-22T09:55:41;18.90;99.90
20998;DHT22;10657;51.276;6.390;2023-07-22T09:58:08;19.00;99.90
20998;DHT22;10657;51.276;6.390;2023-07-22T10:00:36;19.10;99.90
20998;DHT22;10657;51.276;6.390;2023-07-22T10:03:04;19.30;99.90
20998;DHT22;10657;51.276;6.390;2023-07-22T10:05:38;19.40;99.90
20998;DHT22;10657;51.276;6.390;2023-07-22T10:08:06;19.30;99.90
20998;DHT22;10657;51.276;6.390;2023-07-22T10:10:35;19.30;99.90
20998;DHT22;10657;51.276;6.390;2023-07-22T10:13:04;19.20;99.90
20998;DHT22;10657;51.276;6.390;2023-07-22T10:15:33;19.40;99.90
20998;DHT22;10657;51.276;6.390;2023-07-22T10:18:04;19.50;99.90
20998;DHT22;10657;51.276;6.390;2023-07-22T10:20:34;19.50;99.90
20998;DHT22;10657;51.276;6.390;2023-07-22T10:23:04;19.70;99.90
20998;DHT22;10657;51.276;6.390;2023-07-22T10:25:30;19.70;99.90
20998;DHT22;10657;51.276;6.390;2023-07-22T10:27:57;19.80;99.90
20998;DHT22;10657;51.276;6.390;2023-07-22T10:30:24;19.80;99.90
20998;DHT22;10657;51.276;6.390;2023-07-22T10:32:52;19.90;99.90
20998;DHT22;10657;51.276;6.390;2023-07-22T10:38:13;20.20;99.90
20998;DHT22;10657;51.276;6.390;2023-07-22T10:40:49;20.40;99.90
20998;DHT22;10657;51.276;6.390;2023-07-22T10:43:17;20.60;99.90
20998;DHT22;10657;51.276;6.390;2023-07-22T10:45:50;20.60;99.90
20998;DHT22;10657;51.276;6.390;2023-07-22T10:48:19;20.50;99.90
20998;DHT22;10657;51.276;6.390;2023-07-22T10:50:46;20.50;99.90
20998;DHT22;10657;51.276;6.390;2023-07-22T10:53:20;20.50;99.90
20998;DHT22;10657;51.276;6.390;2023-07-22T11:07:08;20.40;99.90
20998;DHT22;10657;51.276;6.390;2023-07-22T11:09:36;20.40;99.90
20998;DHT22;10657;51.276;6.390;2023-07-22T11:12:17;20.40;99.90
20998;DHT22;10657;51.276;6.390;2023-07-22T11:14:52;20.60;99.90
20998;DHT22;10657;51.276;6.390;2023-07-22T11:17:28;20.60;99.90
20998;DHT22;10657;51.276;6.390;2023-07-22T11:20:00;20.60;99.90
20998;DHT22;10657;51.276;6.390;2023-07-22T11:22:27;20.50;99.90
20998;DHT22;10657;51.276;6.390;2023-07-22T11:24:56;20.70;99.90
20998;DHT22;10657;51.276;6.390;2023-07-22T11:27:26;20.70;99.90
20998;DHT22;10657;51.276;6.390;2023-07-22T11:29:53;20.80;99.90
20998;DHT22;10657;51.276;6.390;2023-07-22T11:32:20;21.00;99.90
20998;DHT22;10657;51.276;6.390;2023-07-22T11:34:51;20.60;99.90
20998;DHT22;10657;51.276;6.390;2023-07-22T11:37:19;20.70;99.90
20998;DHT22;10657;51.276;6.390;2023-07-22T11:39:45;20.70;99.90
20998;DHT22;10657;51.276;6.390;2023-07-22T11:42:12;20.70;99.90
20998;DHT22;10657;51.276;6.390;2023-07-22T11:44:39;20.70;99.90
20998;DHT22;10657;51.276;6.390;2023-07-22T11:47:07;20.70;99.90
20998;DHT22;10657;51.276;6.390;2023-07-22T11:49:41;20.70;99.90
20998;DHT22;10657;51.276;6.390;2023-07-22T11:52:15;21.00;99.90
20998;DHT22;10657;51.276;6.390;2023-07-22T11:54:42;21.40;99.90
20998;DHT22;10657;51.276;6.390;2023-07-22T11:57:13;21.60;99.90
20998;DHT22;10657;51.276;6.390;2023-07-22T11:59:47;21.60;99.90
20998;DHT22;10657;51.276;6.390;2023-07-22T12:02:21;21.80;99.90
20998;DHT22;10657;51.276;6.390;2023-07-22T12:05:01;21.90;99.90
20998;DHT22;10657;51.276;6.390;2023-07-22T12:07:33;21.70;99.90
20998;DHT22;10657;51.276;6.390;2023-07-22T12:10:02;21.70;99.90
20998;DHT22;10657;51.276;6.390;2023-07-22T12:12:33;22.00;99.90
20998;DHT22;10657;51.276;6.390;2023-07-22T12:17:58;22.40;99.90
20998;DHT22;10657;51.276;6.390;2023-07-22T12:20:33;22.20;99.90
20998;DHT22;10657;51.276;6.390;2023-07-22T12:23:00;22.20;99.90
20998;DHT22;10657;51.276;6.390;2023-07-22T12:25:27;22.30;99.90
20998;DHT22;10657;51.276;6.390;2023-07-22T12:27:54;22.40;99.90
20998;DHT22;10657;51.276;6.390;2023-07-22T12:30:20;22.50;99.90
20998;DHT22;10657;51.276;6.390;2023-07-22T12:32:48;22.20;99.90
20998;DHT22;10657;51.276;6.390;2023-07-22T12:35:15;22.30;99.90
20998;DHT22;10657;51.276;6.390;2023-07-22T12:37:42;22.40;99.90
20998;DHT22;10657;51.276;6.390;2023-07-22T12:40:10;22.90;99.90
20998;DHT22;10657;51.276;6.390;2023-07-22T12:42:38;22.60;99.90
20998;DHT22;10657;51.276;6.390;2023-07-22T12:45:05;22.30;99.90
20998;DHT22;10657;51.276;6.390;2023-07-22T12:47:32;22.40;99.90
20998;DHT22;10657;51.276;6.390;2023-07-22T12:49:59;22.40;99.90
20998;DHT22;10657;51.276;6.390;2023-07-22T12:52:25;22.70;99.90
20998;DHT22;10657;51.276;6.390;2023-07-22T12:54:52;23.00;99.90
20998;DHT22;10657;51.276;6.390;2023-07-22T12:57:19;22.80;99.90
20998;DHT22;10657;51.276;6.390;2023-07-22T12:59:46;22.90;99.90
20998;DHT22;10657;51.276;6.390;2023-07-22T13:02:15;22.90;99.90
20998;DHT22;10657;51.276;6.390;2023-07-22T13:04:42;22.70;99.90
20998;DHT22;10657;51.276;6.390;2023-07-22T13:07:10;22.50;99.90
20998;DHT22;10657;51.276;6.390;2023-07-22T13:09:37;22.60;99.90
20998;DHT22;10657;51.276;6.390;2023-07-22T13:12:04;22.90;99.90
20998;DHT22;10657;51.276;6.390;2023-07-22T13:14:30;23.20;99.90
20998;DHT22;10657;51.276;6.390;2023-07-22T13:16:58;23.50;99.90
20998;DHT22;10657;51.276;6.390;2023-07-22T13:19:24;23.10;99.90
20998;DHT22;10657;51.276;6.390;2023-07-22T13:21:51;23.10;99.90
20998;DHT22;10657;51.276;6.390;2023-07-22T13:24:18;23.00;99.90
20998;DHT22;10657;51.276;6.390;2023-07-22T13:26:44;23.00;99.90
20998;DHT22;10657;51.276;6.390;2023-07-22T13:29:11;23.10;99.90
20998;DHT22;10657;51.276;6.390;2023-07-22T13:31:39;23.20;99.90
20998;DHT22;10657;51.276;6.390;2023-07-22T13:34:05;23.40;99.90
20998;DHT22;10657;51.276;6.390;2023-07-22T13:36:32;23.50;99.90
20998;DHT22;10657;51.276;6.390;2023-07-22T13:38:58;23.90;99.90
20998;DHT22;10657;51.276;6.390;2023-07-22T13:41:25;23.70;99.90
20998;DHT22;10657;51.276;6.390;2023-07-22T13:43:52;23.60;99.90
20998;DHT22;10657;51.276;6.390;2023-07-22T13:46:19;23.60;99.90
20998;DHT22;10657;51.276;6.390;2023-07-22T13:48:46;23.80;99.90
20998;DHT22;10657;51.276;6.390;2023-07-22T13:51:13;24.10;99.90
20998;DHT22;10657;51.276;6.390;2023-07-22T13:53:39;24.20;99.90
20998;DHT22;10657;51.276;6.390;2023-07-22T13:56:06;24.70;99.90
20998;DHT22;10657;51.276;6.390;2023-07-22T13:58:33;24.70;99.90
20998;DHT22;10657;51.276;6.390;2023-07-22T14:01:00;24.40;99.90
20998;DHT22;10657;51.276;6.390;2023-07-22T14:03:28;24.20;99.90
20998;DHT22;10657;51.276;6.390;2023-07-22T14:05:55;23.60;99.90
20998;DHT22;10657;51.276;6.390;2023-07-22T14:08:22;23.50;99.90
20998;DHT22;10657;51.276;6.390;2023-07-22T14:10:49;24.00;99.90
20998;DHT22;10657;51.276;6.390;2023-07-22T14:13:15;24.80;99.90
20998;DHT22;10657;51.276;6.390;2023-07-22T14:15:42;24.90;99.90
20998;DHT22;10657;51.276;6.390;2023-07-22T14:18:09;24.30;99.90
20998;DHT22;10657;51.276;6.390;2023-07-22T14:20:35;24.50;99.90
20998;DHT22;10657;51.276;6.390;2023-07-22T14:23:02;24.70;99.90
20998;DHT22;10657;51.276;6.390;2023-07-22T14:25:31;24.70;99.90
20998;DHT22;10657;51.276;6.390;2023-07-22T14:27:57;24.80;99.90
20998;DHT22;10657;51.276;6.390;2023-07-22T14:30:24;24.60;99.90
20998;DHT22;10657;51.276;6.390;2023-07-22T14:32:51;24.20;99.90
20998;DHT22;10657;51.276;6.390;2023-07-22T14:35:17;24.80;99.90
20998;DHT22;10657;51.276;6.390;2023-07-22T14:37:44;25.10;99.90
20998;DHT22;10657;51.276;6.390;2023-07-22T14:40:12;25.10;99.90
20998;DHT22;10657;51.276;6.390;2023-07-22T14:42:39;25.50;99.90
20998;DHT22;10657;51.276;6.390;2023-07-22T14:45:07;25.40;99.90
20998;DHT22;10657;51.276;6.390;2023-07-22T14:47:33;25.30;99.90
20998;DHT22;10657;51.276;6.390;2023-07-22T14:50:01;25.30;99.90
20998;DHT22;10657;51.276;6.390;2023-07-22T14:52:28;25.50;99.90
20998;DHT22;10657;51.276;6.390;2023-07-22T14:54:55;26.00;99.90
20998;DHT22;10657;51.276;6.390;2023-07-22T14:57:22;25.50;99.90
20998;DHT22;10657;51.276;6.390;2023-07-22T14:59:48;24.60;99.90
20998;DHT22;10657;51.276;6.390;2023-07-22T15:02:15;24.30;99.90
20998;DHT22;10657;51.276;6.390;2023-07-22T15:04:42;24.40;99.90
20998;DHT22;10657;51.276;6.390;2023-07-22T15:07:08;24.80;99.90
20998;DHT22;10657;51.276;6.390;2023-07-22T15:09:35;24.70;99.90
20998;DHT22;10657;51.276;6.390;2023-07-22T15:12:02;24.80;99.90
20998;DHT22;10657;51.276;6.390;2023-07-22T15:14:28;24.70;99.90
20998;DHT22;10657;51.276;6.390;2023-07-22T15:16:55;24.90;99.90
20998;DHT22;10657;51.276;6.390;2023-07-22T15:19:22;24.90;99.90
20998;DHT22;10657;51.276;6.390;2023-07-22T15:21:49;24.30;99.90
20998;DHT22;10657;51.276;6.390;2023-07-22T15:24:15;24.10;99.90
20998;DHT22;10657;51.276;6.390;2023-07-22T15:26:42;24.10;99.90
20998;DHT22;10657;51.276;6.390;2023-07-22T15:29:09;24.00;99.90
20998;DHT22;10657;51.276;6.390;2023-07-22T15:31:35;23.90;99.90
20998;DHT22;10657;51.276;6.390;2023-07-22T15:34:02;24.10;99.90
20998;DHT22;10657;51.276;6.390;2023-07-22T15:36:29;23.90;99.90
20998;DHT22;10657;51.276;6.390;2023-07-22T15:38:56;24.00;99.90
20998;DHT22;10657;51.276;6.390;2023-07-22T15:41:22;24.30;99.90
20998;DHT22;10657;51.276;6.390;2023-07-22T15:43:49;24.30;99.90
20998;DHT22;10657;51.276;6.390;2023-07-22T15:46:16;24.00;99.90
20998;DHT22;10657;51.276;6.390;2023-07-22T15:48:43;24.10;99.90
20998;DHT22;10657;51.276;6.390;2023-07-22T15:51:09;24.30;99.90
20998;DHT22;10657;51.276;6.390;2023-07-22T15:53:36;24.40;99.90